Kona, Kentucky
Current Conditions -  °F | °C
As of 11:35 AM on Saturday 22 Nov 2014 (Local Time) from KLNP Reporting Station
Clear Clear  
Wind Chill: 52°   Ceiling: Unl
Heat Index: 52°   Visibility: 10mi
Dew Point: 18°   Wind: 7mph
Humidity: 26%   Direction: 210°SSW
Pressure: 30.37"   Gusts: NA
Location:  37.1283°N, 82.8498°W
Report Text: KLNP 221635Z AUTO 21006KT 10SM CLR 11/M08 A3037 RMK AO2
Loading
Personal Weather Stations






























Interactive Weather Map New forecast layout! Learn more

10-Day Weather Forecast

Advertisements
Track Severe Weather on mobile